createdAt,value
2018-08-03T00:00:47.324Z,23.79
2018-08-03T00:01:47.292Z,23.70
2018-08-03T00:02:47.252Z,23.67
2018-08-03T00:03:47.209Z,23.73
2018-08-03T00:04:47.177Z,23.69
2018-08-03T00:05:47.136Z,23.71
2018-08-03T00:06:47.105Z,23.63
2018-08-03T00:07:47.057Z,23.67
2018-08-03T00:08:47.017Z,23.58
2018-08-03T00:09:46.980Z,23.59
2018-08-03T00:10:46.941Z,23.55
2018-08-03T00:11:46.909Z,23.54
2018-08-03T00:12:46.863Z,23.49
2018-08-03T00:13:46.825Z,23.45
2018-08-03T00:14:46.786Z,23.45
2018-08-03T00:15:46.749Z,23.44
2018-08-03T00:16:46.712Z,23.36
2018-08-03T00:17:46.676Z,23.33
2018-08-03T00:18:46.635Z,23.37
2018-08-03T00:19:46.594Z,23.26
2018-08-03T00:20:46.553Z,23.25
2018-08-03T00:21:46.519Z,23.25
2018-08-03T00:22:46.477Z,23.25
2018-08-03T00:23:46.447Z,23.20
2018-08-03T00:24:46.402Z,23.32
2018-08-03T00:25:46.368Z,23.17
2018-08-03T00:26:46.330Z,23.13
2018-08-03T00:27:46.287Z,23.10
2018-08-03T00:28:46.249Z,23.11
2018-08-03T00:29:46.208Z,23.10
2018-08-03T00:30:46.168Z,23.08
2018-08-03T00:31:46.133Z,23.01
2018-08-03T00:32:46.090Z,23.06
2018-08-03T00:33:46.061Z,23.02
2018-08-03T00:34:46.014Z,23.07
2018-08-03T00:35:45.975Z,23.04
2018-08-03T00:36:45.939Z,23.02
2018-08-03T00:37:45.897Z,22.96
2018-08-03T00:38:45.863Z,22.95
2018-08-03T00:39:45.822Z,22.80
2018-08-03T00:40:45.783Z,22.92
2018-08-03T00:41:45.743Z,22.86
2018-08-03T00:42:45.702Z,22.88
2018-08-03T00:43:45.669Z,22.83
2018-08-03T00:44:45.626Z,22.80
2018-08-03T00:45:45.590Z,22.81
2018-08-03T00:46:45.552Z,22.76
2018-08-03T00:47:45.512Z,22.73
2018-08-03T00:48:45.472Z,22.76
2018-08-03T00:49:45.434Z,22.70
2018-08-03T00:50:45.393Z,22.65
2018-08-03T00:51:45.358Z,22.71
2018-08-03T00:52:45.315Z,22.63
2018-08-03T00:53:45.278Z,22.61
2018-08-03T00:54:45.238Z,22.59
2018-08-03T00:55:45.201Z,22.59
2018-08-03T00:56:45.161Z,22.52
2018-08-03T00:57:45.120Z,22.56
2018-08-03T00:58:45.083Z,22.51
2018-08-03T00:59:45.041Z,22.47
2018-08-03T01:00:45.011Z,22.51
2018-08-03T01:01:44.967Z,22.52
2018-08-03T01:02:44.935Z,22.47
2018-08-03T01:03:44.885Z,22.37
2018-08-03T01:04:44.851Z,22.47
2018-08-03T01:05:44.810Z,22.47
2018-08-03T01:06:44.771Z,22.47
2018-08-03T01:07:44.732Z,22.36
2018-08-03T01:08:44.690Z,22.38
2018-08-03T01:09:44.653Z,22.31
2018-08-03T01:10:44.612Z,22.26
2018-08-03T01:11:44.573Z,22.28
2018-08-03T01:12:44.542Z,22.26
2018-08-03T01:13:44.498Z,22.23
2018-08-03T01:14:44.457Z,22.26
2018-08-03T01:15:44.424Z,22.21
2018-08-03T01:16:44.378Z,22.23
2018-08-03T01:17:44.342Z,22.19
2018-08-03T01:18:44.303Z,22.19
2018-08-03T01:19:44.261Z,22.08
2018-08-03T01:20:44.224Z,22.08
2018-08-03T01:21:44.184Z,22.07
2018-08-03T01:22:44.149Z,22.07
2018-08-03T01:23:44.106Z,22.06
2018-08-03T01:24:44.066Z,22.03
2018-08-03T01:25:44.028Z,21.99
2018-08-03T01:26:43.988Z,22.00
2018-08-03T01:27:43.947Z,22.00
2018-08-03T01:28:43.908Z,21.94
2018-08-03T01:29:43.869Z,21.91
2018-08-03T01:30:43.830Z,21.94
2018-08-03T01:31:43.793Z,21.99
2018-08-03T01:32:43.748Z,21.91
2018-08-03T01:33:43.711Z,21.89
2018-08-03T01:34:43.673Z,21.89
2018-08-03T01:35:43.637Z,21.91
2018-08-03T01:36:43.597Z,21.91
2018-08-03T01:37:43.582Z,21.83
2018-08-03T01:38:43.514Z,21.80
2018-08-03T01:39:43.476Z,21.88
2018-08-03T01:40:43.442Z,21.75
2018-08-03T01:41:43.397Z,21.80
2018-08-03T01:42:43.358Z,21.77
2018-08-03T01:43:43.318Z,21.75
2018-08-03T01:44:43.284Z,21.72
2018-08-03T01:45:43.240Z,21.70
2018-08-03T01:46:43.199Z,21.69
2018-08-03T01:47:43.162Z,21.66
2018-08-03T01:48:43.124Z,21.68
2018-08-03T01:49:43.085Z,21.69
2018-08-03T01:50:43.040Z,21.63
2018-08-03T01:51:43.005Z,21.63
2018-08-03T01:52:42.963Z,21.62
2018-08-03T01:53:42.924Z,21.62
2018-08-03T01:54:42.883Z,21.62
2018-08-03T01:55:42.842Z,21.54
2018-08-03T01:56:42.808Z,21.53
2018-08-03T01:57:42.767Z,21.53
2018-08-03T01:58:42.726Z,21.62
2018-08-03T01:59:42.687Z,21.58
2018-08-03T02:00:42.648Z,21.54
2018-08-03T02:01:42.607Z,21.50
2018-08-03T02:02:42.571Z,21.51
2018-08-03T02:03:42.533Z,21.54
2018-08-03T02:04:42.496Z,21.56
2018-08-03T02:05:42.456Z,21.41
2018-08-03T02:06:42.408Z,21.48
2018-08-03T02:07:42.372Z,21.44
2018-08-03T02:08:42.331Z,21.37
2018-08-03T02:09:42.293Z,21.35
2018-08-03T02:10:42.250Z,21.41
2018-08-03T02:11:42.210Z,21.41
2018-08-03T02:12:42.172Z,21.41
2018-08-03T02:13:42.135Z,21.37
2018-08-03T02:14:42.099Z,21.35
2018-08-03T02:15:42.055Z,21.32
2018-08-03T02:16:42.021Z,21.26
2018-08-03T02:17:41.975Z,21.29
2018-08-03T02:18:41.935Z,21.33
2018-08-03T02:19:41.899Z,21.32
2018-08-03T02:20:41.861Z,21.29
2018-08-03T02:21:41.817Z,21.30
2018-08-03T02:22:41.779Z,21.23
2018-08-03T02:23:41.744Z,21.22
2018-08-03T02:24:41.699Z,21.29
2018-08-03T02:25:41.659Z,21.22
2018-08-03T02:26:41.616Z,21.28
2018-08-03T02:27:41.585Z,21.17
2018-08-03T02:28:41.539Z,21.14
2018-08-03T02:29:41.499Z,21.20
2018-08-03T02:30:41.459Z,21.17
2018-08-03T02:31:41.423Z,21.20
2018-08-03T02:32:41.393Z,21.15
2018-08-03T02:33:41.343Z,21.11
2018-08-03T02:34:41.310Z,21.04
2018-08-03T02:35:41.261Z,21.01
2018-08-03T02:36:41.225Z,21.01
2018-08-03T02:37:41.183Z,20.96
2018-08-03T02:38:41.140Z,20.96
2018-08-03T02:39:41.103Z,21.00
2018-08-03T02:40:41.064Z,21.01
2018-08-03T02:41:41.021Z,20.95
2018-08-03T02:42:40.985Z,20.98
2018-08-03T02:43:40.943Z,21.03
2018-08-03T02:44:40.902Z,20.98
2018-08-03T02:45:40.864Z,20.96
2018-08-03T02:46:40.829Z,20.88
2018-08-03T02:47:40.784Z,20.89
2018-08-03T02:48:40.746Z,20.88
2018-08-03T02:49:40.705Z,20.89
2018-08-03T02:50:40.669Z,20.86
2018-08-03T02:51:40.628Z,20.88
2018-08-03T02:52:40.586Z,20.75
2018-08-03T02:53:40.543Z,20.83
2018-08-03T02:54:40.532Z,20.80
2018-08-03T02:55:40.468Z,20.75
2018-08-03T02:56:40.423Z,20.89
2018-08-03T02:57:40.386Z,20.85
2018-08-03T02:58:40.342Z,20.77
2018-08-03T02:59:40.305Z,20.80
2018-08-03T03:00:40.264Z,20.86
2018-08-03T03:01:40.225Z,20.86
2018-08-03T03:02:40.184Z,20.78
2018-08-03T03:03:40.144Z,20.80
2018-08-03T03:04:40.106Z,20.70
2018-08-03T03:05:40.066Z,20.68
2018-08-03T03:06:40.029Z,20.74
2018-08-03T03:07:39.985Z,20.68
2018-08-03T03:08:39.944Z,20.73
2018-08-03T03:09:39.905Z,20.71
2018-08-03T03:10:39.866Z,20.73
2018-08-03T03:11:39.829Z,20.70
2018-08-03T03:12:39.790Z,20.71
2018-08-03T03:13:39.745Z,20.63
2018-08-03T03:14:39.707Z,20.68
2018-08-03T03:15:39.666Z,20.52
2018-08-03T03:16:39.626Z,20.58
2018-08-03T03:17:39.585Z,20.58
2018-08-03T03:18:39.544Z,20.58
2018-08-03T03:19:39.556Z,20.48
2018-08-03T03:20:39.468Z,20.60
2018-08-03T03:21:39.428Z,20.59
2018-08-03T03:22:39.384Z,20.48
2018-08-03T03:23:39.345Z,20.58
2018-08-03T03:24:39.307Z,20.50
2018-08-03T03:25:39.265Z,20.49
2018-08-03T03:26:39.226Z,20.48
2018-08-03T03:27:39.190Z,20.42
2018-08-03T03:28:39.144Z,20.49
2018-08-03T03:29:39.104Z,20.52
2018-08-03T03:30:39.066Z,20.52
2018-08-03T03:31:39.028Z,20.42
2018-08-03T03:32:39.063Z,20.48
2018-08-03T03:33:38.945Z,20.44
2018-08-03T03:34:38.906Z,20.37
2018-08-03T03:35:38.865Z,20.40
2018-08-03T03:36:38.823Z,20.40
2018-08-03T03:37:38.787Z,20.36
2018-08-03T03:38:38.743Z,20.42
2018-08-03T03:39:38.706Z,20.46
2018-08-03T03:40:38.670Z,20.37
2018-08-03T03:41:38.623Z,20.39
2018-08-03T03:42:38.582Z,20.39
2018-08-03T03:43:38.542Z,20.37
2018-08-03T03:44:38.508Z,20.34
2018-08-03T03:45:38.523Z,20.32
2018-08-03T03:46:38.430Z,20.36
2018-08-03T03:47:38.382Z,20.36
2018-08-03T03:48:38.345Z,20.40
2018-08-03T03:49:38.303Z,20.39
2018-08-03T03:50:38.266Z,20.36
2018-08-03T03:51:38.225Z,20.36
2018-08-03T03:52:38.184Z,20.42
2018-08-03T03:53:38.147Z,20.32
2018-08-03T03:54:38.100Z,20.34
2018-08-03T03:55:38.063Z,20.34
2018-08-03T03:56:38.021Z,20.36
2018-08-03T03:57:37.983Z,20.39
2018-08-03T03:58:37.942Z,20.34
2018-08-03T03:59:37.903Z,20.37
2018-08-03T04:00:37.864Z,20.36
2018-08-03T04:01:37.824Z,20.33
2018-08-03T04:02:37.781Z,20.39
2018-08-03T04:03:37.742Z,20.34
2018-08-03T04:04:37.700Z,20.33
2018-08-03T04:05:37.666Z,20.36
2018-08-03T04:06:37.620Z,20.39
2018-08-03T04:07:37.581Z,20.36
2018-08-03T04:08:37.543Z,20.46
2018-08-03T04:09:37.501Z,20.33
2018-08-03T04:10:37.459Z,20.37
2018-08-03T04:11:37.425Z,20.36
2018-08-03T04:12:37.381Z,20.36
2018-08-03T04:13:37.342Z,20.36
2018-08-03T04:14:37.300Z,20.36
2018-08-03T04:15:37.259Z,20.34
2018-08-03T04:16:37.224Z,20.37
2018-08-03T04:17:37.180Z,20.37
2018-08-03T04:18:37.138Z,20.34
2018-08-03T04:19:37.099Z,20.36
2018-08-03T04:20:37.060Z,20.37
2018-08-03T04:21:37.017Z,20.36
2018-08-03T04:22:36.980Z,20.39
2018-08-03T04:23:36.942Z,20.36
2018-08-03T04:24:36.899Z,20.37
2018-08-03T04:25:36.890Z,20.37
2018-08-03T04:26:36.821Z,20.33
2018-08-03T04:27:36.779Z,20.30
2018-08-03T04:28:36.737Z,20.39
2018-08-03T04:29:36.701Z,20.32
2018-08-03T04:30:36.659Z,20.26
2018-08-03T04:31:36.615Z,20.24
2018-08-03T04:32:36.575Z,20.30
2018-08-03T04:33:36.539Z,20.22
2018-08-03T04:34:36.498Z,20.36
2018-08-03T04:35:36.455Z,20.33
2018-08-03T04:36:36.414Z,20.22
2018-08-03T04:37:36.377Z,20.34
2018-08-03T04:38:36.370Z,20.37
2018-08-03T04:39:36.296Z,20.26
2018-08-03T04:40:36.264Z,20.32
2018-08-03T04:41:36.218Z,20.34
2018-08-03T04:42:36.201Z,20.34
2018-08-03T04:43:36.144Z,20.36
2018-08-03T04:44:36.098Z,20.34
2018-08-03T04:45:36.056Z,20.36
2018-08-03T04:46:36.016Z,20.39
2018-08-03T04:47:35.976Z,20.46
2018-08-03T04:48:35.972Z,20.39
2018-08-03T04:49:35.893Z,20.39
2018-08-03T04:50:35.852Z,20.37
2018-08-03T04:51:35.812Z,20.42
2018-08-03T04:52:35.771Z,20.46
2018-08-03T04:53:35.733Z,20.48
2018-08-03T04:54:35.725Z,20.44
2018-08-03T04:55:35.652Z,20.52
2018-08-03T04:56:35.612Z,20.49
2018-08-03T04:57:35.573Z,20.49
2018-08-03T04:58:35.531Z,20.50
2018-08-03T04:59:35.492Z,20.52
2018-08-03T05:00:35.455Z,20.50
2018-08-03T05:01:35.410Z,20.56
2018-08-03T05:02:35.369Z,20.53
2018-08-03T05:03:35.332Z,20.52
2018-08-03T05:04:35.297Z,20.59
2018-08-03T05:05:35.260Z,20.52
2018-08-03T05:06:35.208Z,20.66
2018-08-03T05:07:35.171Z,20.55
2018-08-03T05:08:35.131Z,20.63
2018-08-03T05:09:35.090Z,20.63
2018-08-03T05:10:35.050Z,20.70
2018-08-03T05:11:35.023Z,20.70
2018-08-03T05:12:34.972Z,20.68
2018-08-03T05:13:34.930Z,20.73
2018-08-03T05:14:34.893Z,20.82
2018-08-03T05:15:34.921Z,20.82
2018-08-03T05:16:34.809Z,20.78
2018-08-03T05:17:34.771Z,20.78
2018-08-03T05:18:34.728Z,20.82
2018-08-03T05:19:34.688Z,20.92
2018-08-03T05:20:34.650Z,20.86
2018-08-03T05:21:34.612Z,21.01
2018-08-03T05:22:34.571Z,20.96
2018-08-03T05:23:34.530Z,21.01
2018-08-03T05:24:34.488Z,21.01
2018-08-03T05:25:34.450Z,21.03
2018-08-03T05:26:34.408Z,21.11
2018-08-03T05:27:34.369Z,21.14
2018-08-03T05:28:34.330Z,21.13
2018-08-03T05:29:34.292Z,21.17
2018-08-03T05:30:34.249Z,21.14
2018-08-03T05:31:34.209Z,21.17
2018-08-03T05:32:34.177Z,21.26
2018-08-03T05:33:34.133Z,21.28
2018-08-03T05:34:34.089Z,21.29
2018-08-03T05:35:34.133Z,21.37
2018-08-03T05:36:34.010Z,21.32
2018-08-03T05:37:33.985Z,21.41
2018-08-03T05:38:33.930Z,21.40
2018-08-03T05:39:33.890Z,21.44
2018-08-03T05:40:33.856Z,21.45
2018-08-03T05:41:33.811Z,21.53
2018-08-03T05:42:33.795Z,21.51
2018-08-03T05:43:33.733Z,21.56
2018-08-03T05:44:33.694Z,21.56
2018-08-03T05:45:33.717Z,21.59
2018-08-03T05:46:33.612Z,21.66
2018-08-03T05:47:33.575Z,21.72
2018-08-03T05:48:33.532Z,21.68
2018-08-03T05:49:33.494Z,21.69
2018-08-03T05:50:33.455Z,21.75
2018-08-03T05:51:33.417Z,21.85
2018-08-03T05:52:33.378Z,21.78
2018-08-03T05:53:33.363Z,21.92
2018-08-03T05:54:33.307Z,21.92
2018-08-03T05:55:33.256Z,21.96
2018-08-03T05:56:33.220Z,21.99
2018-08-03T05:57:33.180Z,21.99
2018-08-03T05:58:33.139Z,22.06
2018-08-03T05:59:33.099Z,22.08
2018-08-03T06:00:33.059Z,22.18
2018-08-03T06:01:33.024Z,22.22
2018-08-03T06:02:32.989Z,22.15
2018-08-03T06:03:32.941Z,22.25
2018-08-03T06:04:32.901Z,22.28
2018-08-03T06:05:32.866Z,22.34
2018-08-03T06:06:32.822Z,22.41
2018-08-03T06:07:32.786Z,22.44
2018-08-03T06:08:32.743Z,22.51
2018-08-03T06:09:32.750Z,22.49
2018-08-03T06:10:32.666Z,22.62
2018-08-03T06:11:32.627Z,22.59
2018-08-03T06:12:32.591Z,22.61
2018-08-03T06:13:32.548Z,22.58
2018-08-03T06:14:32.509Z,22.70
2018-08-03T06:15:32.471Z,22.76
2018-08-03T06:16:32.433Z,22.81
2018-08-03T06:17:32.395Z,22.74
2018-08-03T06:18:32.358Z,22.95
2018-08-03T06:19:32.319Z,22.95
2018-08-03T06:20:32.305Z,23.04
2018-08-03T06:21:32.236Z,23.06
2018-08-03T06:22:32.197Z,23.08
2018-08-03T06:23:32.158Z,23.14
2018-08-03T06:24:32.118Z,23.16
2018-08-03T06:25:32.084Z,23.13
2018-08-03T06:26:32.042Z,23.20
2018-08-03T06:27:32.004Z,23.16
2018-08-03T06:28:32.021Z,23.21
2018-08-03T06:29:31.972Z,23.33
2018-08-03T06:30:31.888Z,23.32
2018-08-03T06:31:31.848Z,23.40
2018-08-03T06:32:31.809Z,23.47
2018-08-03T06:33:31.774Z,23.52
2018-08-03T06:34:31.728Z,23.55
2018-08-03T06:35:31.699Z,23.59
2018-08-03T06:36:31.654Z,23.64
2018-08-03T06:37:31.612Z,23.73
2018-08-03T06:38:31.581Z,23.76
2018-08-03T06:39:31.538Z,23.76
2018-08-03T06:40:31.499Z,23.82
2018-08-03T06:41:31.469Z,23.84
2018-08-03T06:42:31.422Z,23.89
2018-08-03T06:43:31.380Z,23.95
2018-08-03T06:44:31.366Z,24.00
2018-08-03T06:45:31.305Z,24.04
2018-08-03T06:46:31.265Z,24.06
2018-08-03T06:47:31.229Z,24.16
2018-08-03T06:48:31.257Z,24.10
2018-08-03T06:49:31.152Z,24.22
2018-08-03T06:50:31.112Z,24.26
2018-08-03T06:51:31.074Z,24.29
2018-08-03T06:52:31.036Z,24.28
2018-08-03T06:53:31.000Z,24.34
2018-08-03T06:54:30.959Z,24.37
2018-08-03T06:55:30.920Z,24.43
2018-08-03T06:56:30.886Z,24.36
2018-08-03T06:57:30.901Z,24.44
2018-08-03T06:58:30.808Z,24.55
2018-08-03T06:59:30.779Z,24.59
2018-08-03T07:00:30.730Z,24.63
2018-08-03T07:01:30.692Z,24.68
2018-08-03T07:02:30.652Z,24.77
2018-08-03T07:03:30.616Z,24.82
2018-08-03T07:04:30.602Z,24.79
2018-08-03T07:05:30.543Z,24.86
2018-08-03T07:06:30.500Z,25.03
2018-08-03T07:07:30.462Z,24.92
2018-08-03T07:08:30.479Z,24.96
2018-08-03T07:09:30.389Z,25.12
2018-08-03T07:10:30.348Z,25.11
2018-08-03T07:11:30.312Z,25.18
2018-08-03T07:12:30.274Z,25.18
2018-08-03T07:13:30.236Z,25.29
2018-08-03T07:14:30.238Z,25.31
2018-08-03T07:15:30.160Z,25.34
2018-08-03T07:16:30.121Z,25.39
2018-08-03T07:17:30.083Z,25.39
2018-08-03T07:18:30.045Z,25.56
2018-08-03T07:19:30.010Z,25.49
2018-08-03T07:20:30.126Z,25.56
2018-08-03T07:21:29.933Z,25.63
2018-08-03T07:22:29.894Z,25.62
2018-08-03T07:23:29.860Z,25.70
2018-08-03T07:24:29.824Z,25.76
2018-08-03T07:25:29.790Z,25.81
2018-08-03T07:26:29.740Z,25.81
2018-08-03T07:27:29.706Z,25.92
2018-08-03T07:28:29.667Z,25.91
2018-08-03T07:29:29.633Z,25.92
2018-08-03T07:30:29.593Z,25.98
2018-08-03T07:31:29.584Z,26.01
2018-08-03T07:32:29.519Z,26.04
2018-08-03T07:33:29.483Z,26.07
2018-08-03T07:34:29.446Z,26.13
2018-08-03T07:35:29.405Z,26.18
2018-08-03T07:36:29.368Z,26.23
2018-08-03T07:37:29.334Z,26.29
2018-08-03T07:38:29.292Z,26.27
2018-08-03T07:39:29.258Z,26.44
2018-08-03T07:40:29.218Z,26.48
2018-08-03T07:41:29.184Z,26.55
2018-08-03T07:42:29.143Z,26.55
2018-08-03T07:43:29.196Z,26.61
2018-08-03T07:44:29.071Z,26.66
2018-08-03T07:45:29.037Z,26.73
2018-08-03T07:46:29.000Z,26.74
2018-08-03T07:47:28.961Z,26.83
2018-08-03T07:48:28.924Z,26.82
2018-08-03T07:49:28.886Z,26.98
2018-08-03T07:50:28.847Z,26.96
2018-08-03T07:51:28.813Z,27.04
2018-08-03T07:52:28.792Z,27.20
2018-08-03T07:53:28.738Z,27.18
2018-08-03T07:54:28.698Z,27.30
2018-08-03T07:55:28.663Z,27.41
2018-08-03T07:56:28.637Z,27.44
2018-08-03T07:57:28.589Z,27.60
2018-08-03T07:58:28.561Z,27.64
2018-08-03T07:59:28.517Z,27.81
2018-08-03T08:00:28.525Z,27.97
2018-08-03T08:01:28.442Z,28.01
2018-08-03T08:02:28.410Z,28.04
2018-08-03T08:03:28.367Z,28.15
2018-08-03T08:04:28.334Z,28.30
2018-08-03T08:05:28.296Z,28.38
2018-08-03T08:06:28.265Z,28.47
2018-08-03T08:07:28.220Z,28.55
2018-08-03T08:08:28.185Z,28.59
2018-08-03T08:09:28.172Z,28.70
2018-08-03T08:10:28.124Z,28.82
2018-08-03T08:11:28.075Z,28.90
2018-08-03T08:12:28.040Z,29.05
2018-08-03T08:13:28.002Z,29.09
2018-08-03T08:14:27.968Z,29.16
2018-08-03T08:15:27.935Z,29.25
2018-08-03T08:16:27.893Z,29.39
2018-08-03T08:17:27.864Z,29.50
2018-08-03T08:18:27.823Z,29.55
2018-08-03T08:19:27.786Z,29.74
2018-08-03T08:20:27.750Z,29.76
2018-08-03T08:21:27.716Z,29.84
2018-08-03T08:22:27.683Z,29.92
2018-08-03T08:23:27.643Z,30.03
2018-08-03T08:24:27.606Z,30.13
2018-08-03T08:25:27.575Z,30.11
2018-08-03T08:26:27.573Z,30.27
2018-08-03T08:27:27.499Z,30.33
2018-08-03T08:28:27.463Z,30.43
2018-08-03T08:29:27.430Z,30.54
2018-08-03T08:30:27.394Z,30.61
2018-08-03T08:31:27.360Z,30.63
2018-08-03T08:32:27.320Z,30.67
2018-08-03T08:33:27.289Z,30.77
2018-08-03T08:34:27.250Z,30.89
2018-08-03T08:35:27.214Z,30.91
2018-08-03T08:36:27.186Z,31.04
2018-08-03T08:37:27.154Z,31.04
2018-08-03T08:38:27.114Z,31.07
2018-08-03T08:39:27.079Z,31.18
2018-08-03T08:40:27.044Z,31.18
2018-08-03T08:41:27.003Z,31.30
2018-08-03T08:42:26.972Z,31.32
2018-08-03T08:43:26.954Z,31.41
2018-08-03T08:44:26.898Z,31.44
2018-08-03T08:45:26.865Z,31.51
2018-08-03T08:46:26.834Z,31.60
2018-08-03T08:47:26.795Z,31.67
2018-08-03T08:48:26.762Z,31.70
2018-08-03T08:49:26.730Z,31.86
2018-08-03T08:50:26.688Z,31.86
2018-08-03T08:51:26.662Z,31.86
2018-08-03T08:52:26.619Z,31.93
2018-08-03T08:53:26.584Z,31.98
2018-08-03T08:54:26.554Z,31.97
2018-08-03T08:55:26.523Z,32.04
2018-08-03T08:56:26.487Z,32.09
2018-08-03T08:57:26.448Z,32.12
2018-08-03T08:58:26.416Z,32.17
2018-08-03T08:59:26.378Z,32.26
2018-08-03T09:00:26.343Z,32.35
2018-08-03T09:01:26.313Z,32.35
2018-08-03T09:02:26.278Z,32.48
2018-08-03T09:03:26.239Z,32.42
2018-08-03T09:04:26.206Z,32.49
2018-08-03T09:05:26.176Z,32.64
2018-08-03T09:06:26.137Z,32.60
2018-08-03T09:07:26.140Z,32.72
2018-08-03T09:08:26.069Z,32.78
2018-08-03T09:09:26.034Z,32.82
2018-08-03T09:10:25.999Z,32.86
2018-08-03T09:11:25.967Z,32.91
2018-08-03T09:12:25.934Z,32.95
2018-08-03T09:13:25.902Z,33.04
2018-08-03T09:14:25.872Z,33.04
2018-08-03T09:15:25.829Z,33.16
2018-08-03T09:16:25.799Z,33.23
2018-08-03T09:17:25.763Z,33.29
2018-08-03T09:18:25.750Z,33.31
2018-08-03T09:19:25.703Z,33.38
2018-08-03T09:20:25.662Z,33.35
2018-08-03T09:21:25.632Z,33.48
2018-08-03T09:22:25.594Z,33.44
2018-08-03T09:23:25.562Z,33.54
2018-08-03T09:24:25.551Z,33.55
2018-08-03T09:25:25.495Z,33.61
2018-08-03T09:26:25.460Z,33.66
2018-08-03T09:27:25.429Z,33.65
2018-08-03T09:28:25.442Z,33.81
2018-08-03T09:29:25.358Z,33.88
2018-08-03T09:30:25.326Z,33.89
2018-08-03T09:31:25.291Z,33.95
2018-08-03T09:32:25.263Z,33.94
2018-08-03T09:33:25.229Z,34.03
2018-08-03T09:34:25.190Z,33.95
2018-08-03T09:35:25.157Z,34.11
2018-08-03T09:36:25.148Z,34.14
2018-08-03T09:37:25.097Z,34.28
2018-08-03T09:38:25.057Z,34.28
2018-08-03T09:39:25.025Z,34.31
2018-08-03T09:40:24.995Z,34.33
2018-08-03T09:41:24.960Z,34.41
2018-08-03T09:42:24.925Z,34.56
2018-08-03T09:43:24.898Z,34.59
2018-08-03T09:44:24.859Z,34.62
2018-08-03T09:45:24.831Z,34.76
2018-08-03T09:46:24.794Z,34.78
2018-08-03T09:47:24.760Z,34.94
2018-08-03T09:48:24.732Z,35.05
2018-08-03T09:49:24.696Z,34.96
2018-08-03T09:50:24.665Z,35.04
2018-08-03T09:51:24.631Z,35.15
2018-08-03T09:52:24.598Z,35.07
2018-08-03T09:53:24.566Z,35.20
2018-08-03T09:54:24.541Z,35.13
2018-08-03T09:55:24.502Z,35.25
2018-08-03T09:56:24.465Z,35.22
2018-08-03T09:57:24.432Z,35.27
2018-08-03T09:58:24.402Z,35.32
2018-08-03T09:59:24.369Z,35.26
2018-08-03T10:00:24.335Z,35.38
2018-08-03T10:01:24.301Z,35.38
2018-08-03T10:02:24.273Z,35.50
2018-08-03T10:03:24.236Z,35.60
2018-08-03T10:04:24.205Z,35.64
2018-08-03T10:05:24.173Z,35.61
2018-08-03T10:06:24.145Z,35.76
2018-08-03T10:07:24.160Z,35.71
2018-08-03T10:08:24.075Z,35.68
2018-08-03T10:09:24.050Z,35.74
2018-08-03T10:10:24.008Z,35.63
2018-08-03T10:11:23.978Z,35.69
2018-08-03T10:12:23.957Z,35.75
2018-08-03T10:13:23.912Z,35.81
2018-08-03T10:14:23.879Z,35.88
2018-08-03T10:15:23.894Z,35.94
2018-08-03T10:16:23.823Z,36.08
2018-08-03T10:17:23.784Z,36.13
2018-08-03T10:18:23.751Z,36.17
2018-08-03T10:19:23.721Z,36.18
2018-08-03T10:20:23.688Z,36.22
2018-08-03T10:21:23.657Z,36.33
2018-08-03T10:22:23.654Z,36.36
2018-08-03T10:23:23.591Z,36.47
2018-08-03T10:24:23.562Z,36.51
2018-08-03T10:25:23.527Z,36.53
2018-08-03T10:26:23.500Z,36.55
2018-08-03T10:27:23.461Z,36.55
2018-08-03T10:28:23.434Z,36.51
2018-08-03T10:29:23.403Z,36.60
2018-08-03T10:30:23.402Z,36.69
2018-08-03T10:31:23.394Z,36.76
2018-08-03T10:32:23.318Z,36.80
2018-08-03T10:33:23.315Z,36.81
2018-08-03T10:34:23.281Z,36.91
2018-08-03T10:35:23.207Z,36.94
2018-08-03T10:36:23.175Z,37.01
2018-08-03T10:37:23.147Z,36.96
2018-08-03T10:38:23.136Z,37.06
2018-08-03T10:39:23.085Z,37.19
2018-08-03T10:40:23.051Z,37.18
2018-08-03T10:41:23.021Z,37.22
2018-08-03T10:42:22.987Z,37.16
2018-08-03T10:43:22.954Z,37.37
2018-08-03T10:44:22.924Z,37.43
2018-08-03T10:45:22.893Z,37.41
2018-08-03T10:46:22.863Z,37.47
2018-08-03T10:47:22.827Z,37.54
2018-08-03T10:48:22.799Z,37.64
2018-08-03T10:49:22.768Z,37.64
2018-08-03T10:50:22.734Z,37.79
2018-08-03T10:51:22.714Z,37.72
2018-08-03T10:52:22.672Z,37.91
2018-08-03T10:53:22.642Z,38.02
2018-08-03T10:54:22.613Z,38.05
2018-08-03T10:55:22.577Z,38.10
2018-08-03T10:56:22.551Z,38.20
2018-08-03T10:57:22.519Z,38.22
2018-08-03T10:58:22.551Z,38.34
2018-08-03T10:59:22.457Z,38.41
2018-08-03T11:00:22.424Z,38.47
2018-08-03T11:01:22.423Z,38.47
2018-08-03T11:02:22.360Z,38.58
2018-08-03T11:03:22.330Z,38.56
2018-08-03T11:04:22.300Z,38.63
2018-08-03T11:05:22.272Z,38.73
2018-08-03T11:06:22.237Z,38.82
2018-08-03T11:07:22.216Z,38.79
2018-08-03T11:08:22.183Z,38.90
2018-08-03T11:09:22.148Z,38.88
2018-08-03T11:10:22.118Z,38.98
2018-08-03T11:11:22.085Z,38.98
2018-08-03T11:12:22.053Z,39.01
2018-08-03T11:13:22.023Z,39.07
2018-08-03T11:14:21.996Z,39.14
2018-08-03T11:15:21.961Z,39.30
2018-08-03T11:16:21.932Z,39.30
2018-08-03T11:17:21.905Z,39.46
2018-08-03T11:18:21.881Z,39.56
2018-08-03T11:19:21.846Z,39.63
2018-08-03T11:20:21.814Z,39.78
2018-08-03T11:21:21.784Z,39.80
2018-08-03T11:22:21.748Z,39.86
2018-08-03T11:23:21.724Z,39.93
2018-08-03T11:24:21.752Z,40.07
2018-08-03T11:25:21.667Z,40.08
2018-08-03T11:26:21.644Z,40.17
2018-08-03T11:27:21.599Z,40.26
2018-08-03T11:28:21.589Z,40.29
2018-08-03T11:29:21.540Z,40.31
2018-08-03T11:30:21.510Z,40.32
2018-08-03T11:31:21.484Z,40.34
2018-08-03T11:32:21.448Z,40.44
2018-08-03T11:33:21.421Z,40.40
2018-08-03T11:34:21.393Z,40.44
2018-08-03T11:35:21.362Z,40.43
2018-08-03T11:36:21.332Z,40.49
2018-08-03T11:37:21.300Z,40.42
2018-08-03T11:38:21.268Z,40.42
2018-08-03T11:39:21.240Z,40.48
2018-08-03T11:40:21.213Z,40.54
2018-08-03T11:41:21.180Z,40.61
2018-08-03T11:42:21.152Z,40.76
2018-08-03T11:43:21.125Z,40.61
2018-08-03T11:44:21.094Z,40.71
2018-08-03T11:45:21.067Z,40.62
2018-08-03T11:46:21.040Z,40.64
2018-08-03T11:47:21.002Z,40.49
2018-08-03T11:48:21.044Z,40.35
2018-08-03T11:49:20.945Z,40.31
2018-08-03T11:50:20.914Z,40.20
2018-08-03T11:51:20.886Z,40.02
2018-08-03T11:52:20.857Z,39.89
2018-08-03T11:53:20.831Z,39.83
2018-08-03T11:54:20.796Z,39.75
2018-08-03T11:55:20.767Z,39.79
2018-08-03T11:56:20.736Z,39.80
2018-08-03T11:57:20.704Z,39.83
2018-08-03T11:58:20.676Z,39.91
2018-08-03T11:59:20.645Z,39.94
2018-08-03T12:00:20.618Z,39.95
2018-08-03T12:01:20.590Z,39.94
2018-08-03T12:02:20.556Z,39.78
2018-08-03T12:03:20.525Z,39.85
2018-08-03T12:04:20.496Z,39.82
2018-08-03T12:05:20.471Z,39.75
2018-08-03T12:06:20.441Z,39.79
2018-08-03T12:07:20.407Z,39.78
2018-08-03T12:08:20.376Z,39.67
2018-08-03T12:09:20.348Z,39.73
2018-08-03T12:10:20.314Z,39.76
2018-08-03T12:11:20.286Z,39.88
2018-08-03T12:12:20.291Z,40.00
2018-08-03T12:13:20.224Z,40.13
2018-08-03T12:14:20.197Z,40.19
2018-08-03T12:15:20.168Z,40.34
2018-08-03T12:16:20.139Z,40.51
2018-08-03T12:17:20.108Z,40.49
2018-08-03T12:18:20.077Z,40.59
2018-08-03T12:19:20.052Z,40.64
2018-08-03T12:20:20.019Z,40.76
2018-08-03T12:21:19.995Z,40.93
2018-08-03T12:22:20.566Z,40.92
2018-08-03T12:23:19.961Z,40.98
2018-08-03T12:24:19.895Z,41.07
2018-08-03T12:25:19.866Z,41.23
2018-08-03T12:26:19.837Z,41.39
2018-08-03T12:27:19.807Z,41.52
2018-08-03T12:28:19.782Z,41.67
2018-08-03T12:29:19.750Z,41.80
2018-08-03T12:30:19.719Z,41.86
2018-08-03T12:31:19.745Z,42.03
2018-08-03T12:32:19.664Z,42.10
2018-08-03T12:33:19.635Z,42.21
2018-08-03T12:34:19.603Z,42.40
2018-08-03T12:35:19.573Z,42.41
2018-08-03T12:36:19.548Z,42.40
2018-08-03T12:37:19.515Z,42.56
2018-08-03T12:38:19.484Z,42.73
2018-08-03T12:39:19.460Z,42.84
2018-08-03T12:40:19.426Z,42.99
2018-08-03T12:41:19.401Z,43.02
2018-08-03T12:42:19.368Z,43.18
2018-08-03T12:43:19.353Z,43.32
2018-08-03T12:44:19.317Z,43.47
2018-08-03T12:45:19.284Z,43.68
2018-08-03T12:46:19.256Z,43.87
2018-08-03T12:47:19.225Z,43.99
2018-08-03T12:48:19.196Z,44.19
2018-08-03T12:49:19.172Z,44.22
2018-08-03T12:50:19.140Z,44.26
2018-08-03T12:51:19.117Z,44.52
2018-08-03T12:52:19.083Z,44.50